createdAt,value
2018-03-20T00:00:58.196Z,38.07
2018-03-20T00:03:30.723Z,37.97
2018-03-20T00:06:04.714Z,32.87
2018-03-20T00:08:38.085Z,36.30
2018-03-20T00:11:10.903Z,39.27
2018-03-20T00:13:44.311Z,31.77
2018-03-20T00:16:17.656Z,40.97
2018-03-20T00:18:51.299Z,42.00
2018-03-20T00:21:24.055Z,38.60
2018-03-20T00:23:57.423Z,38.27
2018-03-20T00:26:30.774Z,34.53
2018-03-20T00:29:03.966Z,39.63
2018-03-20T00:31:36.547Z,34.93
2018-03-20T00:34:08.902Z,37.90
2018-03-20T00:36:41.661Z,41.30
2018-03-20T00:39:14.999Z,38.23
2018-03-20T00:41:48.667Z,44.60
2018-03-20T00:44:21.155Z,36.33
2018-03-20T00:46:55.331Z,41.53
2018-03-20T00:49:27.955Z,37.97
2018-03-20T00:52:00.500Z,47.00
2018-03-20T00:54:33.071Z,43.77
2018-03-20T00:57:05.539Z,39.80
2018-03-20T00:59:38.873Z,42.83
2018-03-20T01:02:12.287Z,42.80
2018-03-20T01:04:45.860Z,40.77
2018-03-20T01:07:19.343Z,37.40
2018-03-20T01:09:52.334Z,45.20
2018-03-20T01:12:25.712Z,42.73
2018-03-20T01:14:58.407Z,41.40
2018-03-20T01:17:30.888Z,31.60
2018-03-20T01:20:04.327Z,39.60
2018-03-20T01:22:37.894Z,39.53
2018-03-20T01:25:10.718Z,46.07
2018-03-20T01:27:43.793Z,36.90
2018-03-20T01:30:16.677Z,31.20
2018-03-20T01:32:49.087Z,34.27
2018-03-20T01:35:21.551Z,30.57
2018-03-20T01:37:54.696Z,42.70
2018-03-20T01:40:27.347Z,39.67
2018-03-20T01:42:59.802Z,40.30
2018-03-20T01:45:32.301Z,37.13
2018-03-20T01:48:04.890Z,31.80
2018-03-20T01:50:37.566Z,33.77
2018-03-20T01:53:18.203Z,33.93
2018-03-20T01:55:50.676Z,35.23
2018-03-20T01:58:23.370Z,33.40
2018-03-20T02:00:56.825Z,44.07
2018-03-20T02:03:29.391Z,42.70
2018-03-20T02:06:02.632Z,49.93
2018-03-20T02:08:35.234Z,41.30
2018-03-20T02:11:08.661Z,44.37
2018-03-20T02:13:41.069Z,42.33
2018-03-20T02:16:14.362Z,36.10
2018-03-20T02:18:47.150Z,34.60
2018-03-20T02:21:19.957Z,33.13
2018-03-20T02:23:52.618Z,40.90
2018-03-20T02:26:25.360Z,41.30
2018-03-20T02:28:58.457Z,42.83
2018-03-20T02:31:31.319Z,34.87
2018-03-20T02:34:03.663Z,39.07
2018-03-20T02:36:36.195Z,43.27
2018-03-20T02:39:08.717Z,38.60
2018-03-20T02:41:41.413Z,31.03
2018-03-20T02:44:14.604Z,35.47
2018-03-20T02:46:48.065Z,30.13
2018-03-20T02:49:21.135Z,33.40
2018-03-20T02:51:54.137Z,30.23
2018-03-20T02:54:26.567Z,27.60
2018-03-20T02:56:59.016Z,36.10
2018-03-20T02:59:31.710Z,36.87
2018-03-20T03:02:04.191Z,23.70
2018-03-20T03:04:38.355Z,31.20
2018-03-20T03:07:11.040Z,27.63
2018-03-20T03:09:44.374Z,30.80
2018-03-20T03:12:17.756Z,28.90
2018-03-20T03:14:50.290Z,27.90
2018-03-20T03:17:23.558Z,32.53
2018-03-20T03:19:56.998Z,31.93
2018-03-20T03:22:29.608Z,26.90
2018-03-20T03:25:03.328Z,24.53
2018-03-20T03:27:36.247Z,30.63
2018-03-20T03:30:08.702Z,25.97
2018-03-20T03:32:41.263Z,27.80
2018-03-20T03:35:13.842Z,25.50
2018-03-20T03:37:46.972Z,27.30
2018-03-20T03:40:19.837Z,23.23
2018-03-20T03:42:53.001Z,20.30
2018-03-20T03:45:26.344Z,26.27
2018-03-20T03:47:59.240Z,21.80
2018-03-20T03:50:32.405Z,21.03
2018-03-20T03:53:05.833Z,24.10
2018-03-20T03:55:38.596Z,26.13
2018-03-20T03:58:11.184Z,27.37
2018-03-20T04:00:44.534Z,32.23
2018-03-20T04:03:18.663Z,28.80
2018-03-20T04:05:51.582Z,25.20
2018-03-20T04:08:25.452Z,21.33
2018-03-20T04:10:58.228Z,19.93
2018-03-20T04:13:31.578Z,29.33
2018-03-20T04:16:04.159Z,26.03
2018-03-20T04:18:36.816Z,23.43
2018-03-20T04:21:10.062Z,19.23
2018-03-20T04:23:42.828Z,20.37
2018-03-20T04:26:16.192Z,30.10
2018-03-20T04:28:49.370Z,21.40
2018-03-20T04:31:22.714Z,18.93
2018-03-20T04:33:55.633Z,27.00
2018-03-20T04:36:28.989Z,25.80
2018-03-20T04:39:01.759Z,22.23
2018-03-20T04:41:34.317Z,31.60
2018-03-20T04:44:07.102Z,29.00
2018-03-20T04:46:39.526Z,24.07
2018-03-20T04:49:12.069Z,22.37
2018-03-20T04:51:45.391Z,22.07
2018-03-20T04:54:18.805Z,25.37
2018-03-20T04:56:51.761Z,19.87
2018-03-20T04:59:24.530Z,26.77
2018-03-20T05:01:56.980Z,17.50
2018-03-20T05:04:29.725Z,25.13
2018-03-20T05:07:02.961Z,22.63
2018-03-20T05:09:35.532Z,22.80
2018-03-20T05:12:08.949Z,30.13
2018-03-20T05:14:41.449Z,28.77
2018-03-20T05:17:13.887Z,23.73
2018-03-20T05:20:04.467Z,22.40
2018-03-20T05:22:43.057Z,30.20
2018-03-20T05:25:15.604Z,20.07
2018-03-20T05:27:48.942Z,26.70
2018-03-20T05:30:21.435Z,28.17
2018-03-20T05:32:54.651Z,23.60
2018-03-20T05:35:27.072Z,26.40
2018-03-20T05:38:01.239Z,21.33
2018-03-20T05:40:33.974Z,31.87
2018-03-20T05:43:06.447Z,26.37
2018-03-20T05:45:39.639Z,21.57
2018-03-20T06:03:20.886Z,29.43
2018-03-20T06:05:53.968Z,30.00
2018-03-20T06:08:26.626Z,28.90
2018-03-20T06:10:59.941Z,29.53
2018-03-20T06:13:33.267Z,27.63
2018-03-20T06:16:05.745Z,29.43
2018-03-20T06:18:39.813Z,34.97
2018-03-20T06:21:12.426Z,30.33
2018-03-20T06:23:44.928Z,26.23
2018-03-20T06:26:17.348Z,27.23
2018-03-20T06:28:50.964Z,28.27
2018-03-20T06:31:24.085Z,25.63
2018-03-20T06:33:57.433Z,29.37
2018-03-20T06:36:29.827Z,20.57
2018-03-20T06:39:03.252Z,27.00
2018-03-20T06:41:36.553Z,31.10
2018-03-20T06:44:09.112Z,20.60
2018-03-20T06:46:42.319Z,28.90
2018-03-20T06:49:15.409Z,26.10
2018-03-20T06:51:48.075Z,27.83
2018-03-20T06:54:21.426Z,27.63
2018-03-20T06:56:54.676Z,26.93
2018-03-20T06:59:27.966Z,29.80
2018-03-20T07:02:00.643Z,29.53
2018-03-20T07:04:33.968Z,25.07
2018-03-20T07:07:07.331Z,27.70
2018-03-20T07:09:39.790Z,31.87
2018-03-20T07:12:12.162Z,28.33
2018-03-20T07:14:45.477Z,29.00
2018-03-20T07:17:18.732Z,30.00
2018-03-20T07:19:51.275Z,30.30
2018-03-20T07:22:23.935Z,25.40
2018-03-20T07:24:56.367Z,27.67
2018-03-20T07:27:29.584Z,24.97
2018-03-20T07:30:03.196Z,26.67
2018-03-20T07:32:35.695Z,28.97
2018-03-20T07:35:08.988Z,23.47
2018-03-20T07:37:41.528Z,26.77
2018-03-20T07:40:14.092Z,26.10
2018-03-20T07:42:48.146Z,27.10
2018-03-20T07:45:20.954Z,25.23
2018-03-20T07:47:54.435Z,21.90
2018-03-20T07:50:27.705Z,30.97
2018-03-20T07:53:01.110Z,23.80
2018-03-20T07:55:33.608Z,33.83
2018-03-20T07:58:06.043Z,29.87
2018-03-20T08:00:38.593Z,29.63
2018-03-20T08:03:11.894Z,25.67
2018-03-20T08:05:44.438Z,31.70
2018-03-20T08:08:17.811Z,28.70
2018-03-20T08:10:50.190Z,34.70
2018-03-20T08:13:22.660Z,23.00
2018-03-20T08:15:55.929Z,25.77
2018-03-20T08:18:28.465Z,30.30
2018-03-20T08:21:01.664Z,29.20
2018-03-20T08:23:34.352Z,24.80
2018-03-20T08:26:07.686Z,30.87
2018-03-20T08:28:41.537Z,22.20
2018-03-20T08:31:14.689Z,20.50
2018-03-20T08:33:48.459Z,18.77
2018-03-20T08:36:21.104Z,26.27
2018-03-20T08:38:53.556Z,23.13
2018-03-20T08:41:27.088Z,27.07
2018-03-20T08:44:00.439Z,24.67
2018-03-20T08:46:33.844Z,21.43
2018-03-20T08:49:06.976Z,23.17
2018-03-20T08:51:39.717Z,19.10
2018-03-20T08:54:12.115Z,26.23
2018-03-20T08:56:45.449Z,20.37
2018-03-20T08:59:18.226Z,20.57
2018-03-20T09:01:51.631Z,22.43
2018-03-20T09:04:24.021Z,22.20
2018-03-20T09:06:56.555Z,21.90
2018-03-20T09:09:29.840Z,21.10
2018-03-20T09:12:03.249Z,27.57
2018-03-20T09:14:35.665Z,19.27
2018-03-20T09:17:09.857Z,14.43
2018-03-20T09:19:42.292Z,19.20
2018-03-20T09:22:14.902Z,18.77
2018-03-20T09:24:48.091Z,14.73
2018-03-20T09:27:21.494Z,15.63
2018-03-20T09:29:54.699Z,17.07
2018-03-20T09:32:28.717Z,16.30
2018-03-20T09:35:01.236Z,14.30
2018-03-20T09:37:35.271Z,19.60
2018-03-20T09:40:30.893Z,16.60
2018-03-20T09:43:03.431Z,14.77
2018-03-20T09:45:36.746Z,18.50
2018-03-20T09:48:10.862Z,14.97
2018-03-20T09:50:43.254Z,20.30
2018-03-20T09:53:17.383Z,16.30
2018-03-20T09:55:50.612Z,14.67
2018-03-20T09:58:23.121Z,17.43
2018-03-20T10:00:56.485Z,20.50
2018-03-20T10:03:29.803Z,15.60
2018-03-20T10:06:03.077Z,14.47
2018-03-20T10:08:35.671Z,13.63
2018-03-20T10:11:08.249Z,13.20
2018-03-20T10:13:42.308Z,15.47
2018-03-20T10:16:15.677Z,13.40
2018-03-20T10:18:48.447Z,11.17
2018-03-20T10:21:20.857Z,10.63
2018-03-20T10:23:53.957Z,14.33
2018-03-20T10:26:26.723Z,13.20
2018-03-20T10:28:59.992Z,15.70
2018-03-20T10:31:32.411Z,14.73
2018-03-20T10:34:04.877Z,15.10
2018-03-20T10:36:39.217Z,15.63
2018-03-20T10:39:11.738Z,17.07
2018-03-20T10:41:45.842Z,13.47
2018-03-20T10:44:19.308Z,13.23
2018-03-20T10:46:51.934Z,12.20
2018-03-20T10:49:24.506Z,11.90
2018-03-20T10:51:57.687Z,12.93
2018-03-20T10:54:30.092Z,9.13
2018-03-20T10:57:03.370Z,14.63
2018-03-20T10:59:35.744Z,10.93
2018-03-20T11:02:16.109Z,11.27
2018-03-20T11:04:48.765Z,10.37
2018-03-20T11:07:22.012Z,11.00
2018-03-20T11:09:54.526Z,13.00
2018-03-20T11:12:28.154Z,12.33
2018-03-20T11:15:02.165Z,12.23
2018-03-20T11:17:34.927Z,9.73
2018-03-20T11:20:08.286Z,8.27
2018-03-20T11:22:41.588Z,9.43
2018-03-20T11:25:14.971Z,9.47
2018-03-20T11:27:48.333Z,13.87
2018-03-20T11:30:20.746Z,10.93
2018-03-20T11:32:54.155Z,8.37
2018-03-20T11:35:26.648Z,9.03
2018-03-20T11:37:59.958Z,13.07
2018-03-20T11:40:32.966Z,9.90
2018-03-20T11:43:06.508Z,11.43
2018-03-20T11:45:39.795Z,10.13
2018-03-20T11:48:12.525Z,11.37
2018-03-20T11:50:44.935Z,9.87
2018-03-20T11:53:19.054Z,14.60
2018-03-20T11:55:52.621Z,8.27
2018-03-20T11:58:25.333Z,8.47
2018-03-20T12:00:59.010Z,9.43
2018-03-20T12:03:32.013Z,9.47
2018-03-20T12:06:04.635Z,14.43
2018-03-20T12:08:50.047Z,12.60
2018-03-20T12:11:22.665Z,16.90
2018-03-20T12:13:56.008Z,9.50
2018-03-20T12:16:30.200Z,11.90
2018-03-20T12:19:02.739Z,10.97
2018-03-20T12:21:35.098Z,14.53
2018-03-20T12:24:08.415Z,10.63
2018-03-20T12:26:42.444Z,7.83
2018-03-20T12:29:15.709Z,8.77
2018-03-20T12:31:48.550Z,17.73
2018-03-20T12:34:21.929Z,11.63
2018-03-20T12:36:54.324Z,8.93
2018-03-20T12:39:26.976Z,6.80
2018-03-20T12:42:00.391Z,8.47
2018-03-20T12:44:33.642Z,8.20
2018-03-20T12:47:06.379Z,9.80
2018-03-20T12:49:38.884Z,7.70
2018-03-20T12:52:11.375Z,11.77
2018-03-20T12:54:43.849Z,9.13
2018-03-20T12:57:17.091Z,5.90
2018-03-20T12:59:49.378Z,10.87
2018-03-20T13:02:22.747Z,7.60
2018-03-20T13:04:56.742Z,8.70
2018-03-20T13:07:29.519Z,7.03
2018-03-20T13:10:02.635Z,12.20
2018-03-20T13:12:35.291Z,7.97
2018-03-20T13:15:07.715Z,6.73
2018-03-20T13:17:40.111Z,10.00
2018-03-20T13:20:12.587Z,6.87
2018-03-20T13:22:46.062Z,8.70
2018-03-20T13:25:19.326Z,6.17
2018-03-20T13:27:52.610Z,8.10
2018-03-20T13:30:26.700Z,7.73
2018-03-20T13:32:59.302Z,6.70
2018-03-20T13:35:31.675Z,6.93
2018-03-20T13:38:04.392Z,8.10
2018-03-20T13:40:37.616Z,13.03
2018-03-20T13:43:09.999Z,7.97
2018-03-20T13:45:42.529Z,9.20
2018-03-20T13:48:15.712Z,6.70
2018-03-20T13:50:52.603Z,10.83
2018-03-20T13:53:22.800Z,9.53
2018-03-20T13:55:56.172Z,10.00
2018-03-20T13:58:28.707Z,10.33
2018-03-20T14:01:01.184Z,7.40
2018-03-20T14:03:33.683Z,5.63
2018-03-20T14:06:06.259Z,11.10
2018-03-20T14:08:39.407Z,8.73
2018-03-20T14:11:11.954Z,10.73
2018-03-20T14:13:44.347Z,7.20
2018-03-20T14:16:16.821Z,7.40
2018-03-20T14:18:50.887Z,13.00
2018-03-20T14:21:23.391Z,12.60
2018-03-20T14:23:56.683Z,9.73
2018-03-20T14:26:29.535Z,11.70
2018-03-20T14:29:01.994Z,13.80
2018-03-20T14:31:35.379Z,12.33
2018-03-20T14:34:07.851Z,8.60
2018-03-20T14:36:41.087Z,8.87
2018-03-20T14:39:14.325Z,7.90
2018-03-20T14:41:47.683Z,6.40
2018-03-20T14:44:20.169Z,12.20
2018-03-20T14:46:53.317Z,11.17
2018-03-20T14:49:26.028Z,7.80
2018-03-20T14:51:58.478Z,14.67
2018-03-20T14:54:31.059Z,10.70
2018-03-20T14:57:04.235Z,15.93
2018-03-20T14:59:37.135Z,9.50
2018-03-20T15:02:09.612Z,9.57
2018-03-20T15:04:41.990Z,11.17
2018-03-20T15:07:14.430Z,10.77
2018-03-20T15:09:47.615Z,9.77
2018-03-20T15:12:20.207Z,9.77
2018-03-20T15:14:52.633Z,7.37
2018-03-20T15:17:25.950Z,13.50
2018-03-20T15:19:59.192Z,8.70
2018-03-20T15:22:32.449Z,11.77
2018-03-20T15:25:05.666Z,12.30
2018-03-20T15:27:38.202Z,10.03
2018-03-20T15:30:11.652Z,10.90
2018-03-20T15:32:44.146Z,14.83
2018-03-20T15:35:16.569Z,16.70
2018-03-20T15:37:49.043Z,10.30
2018-03-20T15:40:22.332Z,19.23
2018-03-20T15:42:55.071Z,13.07
2018-03-20T15:45:27.711Z,10.03
2018-03-20T15:48:00.076Z,11.50
2018-03-20T15:50:32.530Z,15.43
2018-03-20T15:53:05.830Z,8.53
2018-03-20T15:55:38.370Z,7.90
2018-03-20T15:58:10.846Z,6.70
2018-03-20T16:00:43.236Z,11.00
2018-03-20T16:03:15.582Z,14.20
2018-03-20T16:05:48.082Z,13.27
2018-03-20T16:08:20.529Z,12.43
2018-03-20T16:10:53.682Z,11.53
2018-03-20T16:13:26.398Z,12.60
2018-03-20T16:15:59.618Z,9.50
2018-03-20T16:18:32.100Z,12.40
2018-03-20T16:21:04.523Z,14.43
2018-03-20T16:23:37.764Z,9.23
2018-03-20T16:26:10.232Z,12.13
2018-03-20T16:28:44.381Z,8.80
2018-03-20T16:31:17.703Z,8.47
2018-03-20T16:33:50.271Z,9.90
2018-03-20T16:36:22.711Z,9.03
2018-03-20T16:38:55.982Z,7.70
2018-03-20T16:41:28.415Z,8.00
2018-03-20T16:44:00.948Z,8.37
2018-03-20T16:46:33.341Z,12.90
2018-03-20T16:49:06.568Z,9.33
2018-03-20T16:51:39.126Z,12.77
2018-03-20T16:54:12.079Z,9.40
2018-03-20T16:56:45.313Z,7.87
2018-03-20T16:59:19.264Z,16.40
2018-03-20T17:01:52.091Z,9.70
2018-03-20T17:04:25.999Z,15.30
2018-03-20T17:06:58.630Z,10.00
2018-03-20T17:09:31.124Z,10.27
2018-03-20T17:12:04.407Z,9.33
2018-03-20T17:14:36.940Z,9.93
2018-03-20T17:17:09.451Z,9.70
2018-03-20T17:19:41.913Z,10.50
2018-03-20T17:22:15.266Z,8.73
2018-03-20T17:24:48.430Z,9.30
2018-03-20T17:27:21.021Z,11.67
2018-03-20T17:29:53.405Z,11.33
2018-03-20T17:32:25.870Z,9.00
2018-03-20T17:34:58.251Z,8.17
2018-03-20T17:37:31.534Z,13.77
2018-03-20T17:40:04.872Z,9.77
2018-03-20T17:42:37.695Z,9.30
2018-03-20T17:45:10.186Z,8.13
2018-03-20T17:47:43.487Z,11.60
2018-03-20T17:50:16.915Z,11.70
2018-03-20T17:52:50.265Z,9.90
2018-03-20T17:55:24.404Z,11.20
2018-03-20T17:57:57.714Z,14.30
2018-03-20T18:00:31.568Z,15.37
2018-03-20T18:03:04.419Z,13.63
2018-03-20T18:05:37.665Z,13.37
2018-03-20T18:08:11.176Z,15.83
2018-03-20T18:10:44.535Z,12.23
2018-03-20T18:13:17.688Z,11.03
2018-03-20T18:15:51.037Z,13.60
2018-03-20T18:18:24.339Z,17.47
2018-03-20T18:20:56.795Z,17.00
2018-03-20T18:23:30.083Z,14.23
2018-03-20T18:26:03.581Z,13.23
2018-03-20T18:28:36.632Z,14.00
2018-03-20T18:31:10.610Z,14.20
2018-03-20T18:33:43.306Z,10.83
2018-03-20T18:36:16.740Z,11.70
2018-03-20T18:38:50.055Z,16.00
2018-03-20T18:41:24.481Z,9.87
2018-03-20T18:43:58.705Z,18.70
2018-03-20T18:46:32.186Z,15.50
2018-03-20T18:49:05.324Z,10.53
2018-03-20T18:51:38.891Z,13.27
2018-03-20T18:54:11.578Z,11.00
2018-03-20T18:56:44.068Z,12.97
2018-03-20T18:59:17.398Z,11.27
2018-03-20T19:01:51.311Z,10.13
2018-03-20T19:04:24.092Z,13.43
2018-03-20T19:06:56.540Z,17.70
2018-03-20T19:09:28.947Z,11.67
2018-03-20T19:12:02.239Z,9.73
2018-03-20T19:14:35.629Z,8.17
2018-03-20T19:17:08.001Z,13.40
2018-03-20T19:19:41.523Z,14.37
2018-03-20T19:22:14.715Z,10.27
2018-03-20T19:24:48.943Z,13.17
2018-03-20T19:27:22.254Z,10.57
2018-03-20T19:29:54.978Z,16.23
2018-03-20T19:32:28.154Z,11.67
2018-03-20T19:35:00.931Z,10.10
2018-03-20T19:37:33.512Z,10.13
2018-03-20T19:40:06.813Z,8.97
2018-03-20T19:42:41.803Z,11.67
2018-03-20T19:45:14.357Z,10.40
2018-03-20T19:47:47.770Z,10.40
2018-03-20T19:50:20.711Z,10.90
2018-03-20T19:52:53.904Z,14.23
2018-03-20T19:55:27.219Z,11.00
2018-03-20T19:58:00.051Z,12.50
2018-03-20T20:00:33.313Z,10.60
2018-03-20T20:03:05.912Z,11.90
2018-03-20T20:05:38.393Z,15.03
2018-03-20T20:08:11.889Z,9.23
2018-03-20T20:10:45.111Z,11.80
2018-03-20T20:13:18.482Z,12.00
2018-03-20T20:15:51.912Z,15.23
2018-03-20T20:18:26.238Z,14.30
2018-03-20T20:20:58.789Z,12.40
2018-03-20T20:23:32.175Z,10.27
2018-03-20T20:26:04.674Z,11.23
2018-03-20T20:28:37.988Z,11.97
2018-03-20T20:31:11.498Z,10.13
2018-03-20T20:33:44.021Z,11.60
2018-03-20T20:36:17.451Z,13.17
2018-03-20T20:38:50.648Z,15.80
2018-03-20T20:41:24.088Z,15.00
2018-03-20T20:43:56.866Z,12.53
2018-03-20T20:46:30.293Z,15.10
2018-03-20T20:49:03.763Z,9.50
2018-03-20T20:51:37.720Z,13.20
2018-03-20T20:54:10.365Z,12.77
2018-03-20T20:56:42.795Z,21.60
2018-03-20T20:59:16.158Z,12.37
2018-03-20T21:01:49.609Z,12.00
2018-03-20T21:04:23.076Z,13.20
2018-03-20T21:06:56.314Z,17.30
2018-03-20T21:09:28.732Z,15.80
2018-03-20T21:12:01.258Z,14.23
2018-03-20T21:14:34.489Z,21.70
2018-03-20T21:17:07.820Z,14.80
2018-03-20T21:19:41.161Z,17.43
2018-03-20T21:22:13.519Z,15.33
2018-03-20T21:24:47.527Z,19.93
2018-03-20T21:27:20.759Z,15.60
2018-03-20T21:29:53.479Z,18.37
2018-03-20T21:32:25.879Z,23.60
2018-03-20T21:34:59.054Z,25.00
2018-03-20T21:37:31.823Z,24.37
2018-03-20T21:40:04.479Z,29.50
2018-03-20T21:42:37.931Z,23.73
2018-03-20T21:45:11.243Z,25.43
2018-03-20T21:47:45.520Z,25.87
2018-03-20T21:50:18.710Z,27.67
2018-03-20T21:52:51.232Z,26.23
2018-03-20T21:55:23.881Z,23.90
2018-03-20T21:57:57.267Z,20.30
2018-03-20T22:00:30.681Z,26.33
2018-03-20T22:03:03.954Z,35.63
2018-03-20T22:05:36.413Z,24.33
2018-03-20T22:08:08.782Z,25.80
2018-03-20T22:10:41.327Z,27.83
2018-03-20T22:13:14.758Z,28.27
2018-03-20T22:15:47.742Z,26.60
2018-03-20T22:18:20.535Z,23.33
2018-03-20T22:20:53.037Z,29.23
2018-03-20T22:23:25.430Z,25.07
2018-03-20T22:25:57.789Z,23.30
2018-03-20T22:28:31.004Z,25.63
2018-03-20T22:31:04.317Z,25.23
2018-03-20T22:33:37.442Z,23.77
2018-03-20T22:36:10.052Z,25.13
2018-03-20T22:38:43.307Z,23.50
2018-03-20T22:41:15.819Z,26.40
2018-03-20T22:43:48.226Z,25.70
2018-03-20T22:46:21.634Z,24.97
2018-03-20T22:48:54.774Z,27.53
2018-03-20T22:51:27.380Z,25.60
2018-03-20T22:53:59.810Z,19.80
2018-03-20T22:56:32.251Z,25.20
2018-03-20T22:59:06.163Z,24.73
2018-03-20T23:01:39.015Z,22.10
2018-03-20T23:04:12.329Z,19.60
2018-03-20T23:06:46.339Z,27.20
2018-03-20T23:09:19.128Z,26.10
2018-03-20T23:11:52.525Z,25.60
2018-03-20T23:14:24.871Z,21.80
2018-03-20T23:16:57.278Z,24.73
2018-03-20T23:19:29.846Z,31.73
2018-03-20T23:22:03.080Z,31.30
2018-03-20T23:24:35.588Z,23.60
2018-03-20T23:27:08.051Z,22.27
2018-03-20T23:29:41.356Z,26.10
2018-03-20T23:32:14.791Z,24.17
2018-03-20T23:34:47.444Z,25.87
2018-03-20T23:37:19.818Z,21.13
2018-03-20T23:39:52.257Z,27.93
2018-03-20T23:42:24.782Z,32.07
2018-03-20T23:44:57.970Z,28.40
2018-03-20T23:47:31.315Z,22.87
2018-03-20T23:50:03.992Z,26.07
2018-03-20T23:52:36.522Z,28.83
2018-03-20T23:55:08.943Z,34.53
2018-03-20T23:57:42.095Z,19.57
